Pagrindinis puslapis
METAR-TAF:

METAR-TAF

Oro uostai :

Kuantan, Malaizija

platuma: 03-37N, ilguma: 103-13E, Aukštis: 18 m

Dabartinis oras

Ataskaita buvo paskelbta 23 minutes, ne 22:00 UTC
Ramus vėjas
Temperatūra 24°C
Drėgmė 94%
Slėgis 1008 hPa
Matomumas: 9000 m
Mažai debesys ne aukštis 400 ft
Mažai debesys ne aukštis 1700 ft, Liūtiniai kamuoliniai debesys.

METAR: WMKD 292200Z 00000KT 9000 FEW004 FEW017CB 24/23 Q1008 TEMPO 8000 -RA

Laikas: 06:23 (22:23 UTC)


TAF: trūkstamas

Orai ataskaitas ir orų prognozės (METAR, TAF).

turimą stotys yra geltonos ir raudonos taškus žemėlapyje.

Perkelti pele per norėdami pamatyti stoties vardą.

Tada spustelėkite, norėdami matyti oro stebėjimo ir prognozės.

Norėdami pakeisti žemėlapį: spustelėkite ant žalios mygtukų su juodo kryžiaus žemyn,; žalią mygtuką su brūkšneliu, jei norite nutolinti; arba žalių rodyklių gretimoms žemėlapius.


METAR-TAF: